Observations for BIRMINGHAM AIRPORT, United Kingdom (EGBB)

EGBB 112220Z 14008KT 9999 FEW022 BKN037 06/05 Q1021 
EGBB 112150Z 14008KT 9999 SCT022 BKN037 06/05 Q1021 
EGBB 112120Z 14006KT 9999 FEW020 BKN039 06/05 Q1021 
EGBB 112050Z 14006KT 9999 BKN039 06/05 Q1021
EGBB 112020Z 15007KT 9999 BKN035 06/05 Q1021
EGBB 111950Z 15008KT 9999 SCT024 BKN034 06/05 Q1021 
EGBB 111920Z 14010KT 9999 BKN032 06/05 Q1022
EGBB 111850Z 14008KT 9999 SCT023 BKN028 06/05 Q1022 
EGBB 111820Z 14008KT 9999 SCT030 05/05 Q1021
EGBB 111750Z 14008KT 9999 SCT036 06/05 Q1021
EGBB 111720Z 14008KT 9999 BKN034 06/05 Q1021
EGBB 111650Z 14006KT 9999 FEW034 05/05 Q1022
EGBB 111620Z 13005KT 9000 NSC 05/05 Q1022   
EGBB 111550Z 15006KT 9999 FEW028 06/05 Q1022
EGBB 111520Z 15006KT 9999 FEW028 07/06 Q1022
EGBB 111450Z 15005KT 9999 FEW030 07/06 Q1022
EGBB 111420Z 14006KT CAVOK 07/06 Q1022  
EGBB 111350Z 15005KT CAVOK 07/06 Q1023  
EGBB 111320Z 15006KT CAVOK 08/06 Q1023  
EGBB 111250Z 15006KT CAVOK 08/06 Q1023  
EGBB 111220Z 15005KT CAVOK 08/06 Q1023  
EGBB 111150Z 15004KT CAVOK 08/06 Q1023  
EGBB 111120Z 15004KT CAVOK 07/06 Q1024  
EGBB 111050Z 16005KT 9999 FEW027 06/05 Q1024
EGBB 111020Z 15006KT 9999 FEW026 05/05 Q1024
EGBB 110950Z 16005KT 9999 SCT026 05/05 Q1024
EGBB 110920Z 15005KT 9999 BKN027 05/05 Q1024
EGBB 110850Z 15004KT 9999 BKN027 05/05 Q1024
EGBB 110820Z 16004KT 9000 BKN027 05/05 Q1025
EGBB 110750Z 14006KT 9000 OVC027 04/04 Q1025
EGBB 110720Z 16006KT 9999 7000S OVC028 04/04 Q1024  
EGBB 110650Z 15005KT 5000 BR BKN029 04/04 Q1024 
EGBB 110620Z 14004KT 5000 BR OVC029 03/03 Q1024 
EGBB 110550Z 12003KT 7000 OVC030 02/02 Q1024
EGBB 110520Z 18002KT 7000 BKN030 02/02 Q1025
EGBB 110450Z 16004KT 7000 SCT030 02/02 Q1025
EGBB 110420Z 18004KT 9000 NSC 02/02 Q1025   
EGBB 110350Z 15005KT 9000 NSC 02/02 Q1025   
EGBB 110320Z 14004KT CAVOK 02/02 Q1025  
EGBB 110250Z 17003KT CAVOK 03/03 Q1025  
EGBB 110220Z 18004KT CAVOK 03/03 Q1026  
EGBB 110150Z 15003KT 8000 NSC 02/02 Q1026   
EGBB 110120Z 18004KT 9999 FEW047 04/04 Q1026
EGBB 110050Z 13004KT 9999 FEW047 04/03 Q1026
EGBB 110020Z 22002KT 9999 BKN046 06/04 Q1026
EGBB 102350Z 22004KT CAVOK 06/05 Q1027  
EGBB 102320Z 22003KT CAVOK 07/04 Q1027  
EGBB 102250Z 24003KT CAVOK 07/05 Q1027  
EGBB 102220Z 23003KT CAVOK 07/05 Q1027  
EGBB 102150Z 23004KT CAVOK 06/05 Q1027